createdAt,value
2022-08-05T00:02:22.918Z,7.37
2022-08-05T00:04:55.228Z,7.30
2022-08-05T00:08:00.620Z,8.13
2022-08-05T00:10:11.023Z,10.88
2022-08-05T00:12:55.866Z,9.85
2022-08-05T00:15:55.016Z,9.73
2022-08-05T00:18:21.742Z,9.05
2022-08-05T00:20:50.318Z,9.48
2022-08-05T00:23:17.928Z,8.25
2022-08-05T00:26:05.351Z,8.52
2022-08-05T00:28:34.540Z,10.17
2022-08-05T00:31:04.412Z,9.75
2022-08-05T00:34:55.130Z,9.15
2022-08-05T00:37:10.760Z,8.73
2022-08-05T00:39:13.478Z,10.48
2022-08-05T00:41:52.260Z,8.27
2022-08-05T00:44:30.927Z,8.93
2022-08-05T00:47:02.255Z,10.85
2022-08-05T00:49:32.596Z,8.52
2022-08-05T00:52:00.719Z,9.02
2022-08-05T00:54:30.156Z,9.40
2022-08-05T00:56:57.783Z,11.57
2022-08-05T00:59:26.591Z,10.23
2022-08-05T01:02:02.203Z,10.20
2022-08-05T01:04:30.235Z,8.27
2022-08-05T01:06:57.860Z,8.53
2022-08-05T01:09:26.351Z,7.90
2022-08-05T01:12:04.518Z,9.27
2022-08-05T01:14:49.582Z,8.30
2022-08-05T01:17:22.686Z,9.02
2022-08-05T01:20:01.338Z,7.90
2022-08-05T01:22:41.649Z,9.45
2022-08-05T01:25:40.949Z,8.68
2022-08-05T01:28:19.062Z,9.85
2022-08-05T01:30:53.613Z,7.47
2022-08-05T01:33:25.356Z,7.70
2022-08-05T01:35:54.804Z,7.55
2022-08-05T01:38:29.144Z,7.15
2022-08-05T01:40:58.021Z,7.70
2022-08-05T01:43:27.839Z,8.15
2022-08-05T01:45:56.906Z,7.47
2022-08-05T01:48:25.202Z,7.47
2022-08-05T01:50:53.284Z,7.00
2022-08-05T01:53:55.187Z,8.13
2022-08-05T01:56:09.891Z,7.15
2022-08-05T01:58:45.183Z,9.30
2022-08-05T02:01:14.258Z,7.03
2022-08-05T02:03:46.220Z,10.85
2022-08-05T02:06:36.967Z,8.70
2022-08-05T02:09:01.263Z,7.80
2022-08-05T02:11:33.153Z,9.60
2022-08-05T02:14:05.385Z,7.57
2022-08-05T02:16:34.669Z,9.05
2022-08-05T02:19:07.190Z,7.70
2022-08-05T02:21:43.103Z,6.82
2022-08-05T02:24:18.171Z,7.77
2022-08-05T02:26:54.112Z,7.35
2022-08-05T02:29:59.076Z,7.97
2022-08-05T02:32:23.962Z,7.57
2022-08-05T02:34:57.932Z,6.75
2022-08-05T02:37:28.993Z,7.70
2022-08-05T02:39:59.821Z,10.05
2022-08-05T02:42:31.863Z,6.40
2022-08-05T02:45:04.888Z,8.60
2022-08-05T02:47:58.488Z,9.15
2022-08-05T02:50:22.825Z,6.53
2022-08-05T02:52:51.219Z,8.13
2022-08-05T02:55:54.608Z,9.30
2022-08-05T02:58:10.467Z,7.20
2022-08-05T03:00:42.010Z,8.15
2022-08-05T03:03:15.827Z,6.40
2022-08-05T03:06:55.331Z,8.57
2022-08-05T03:08:32.530Z,8.45
2022-08-05T03:11:02.333Z,8.10
2022-08-05T03:13:51.002Z,6.70
2022-08-05T03:16:21.428Z,7.47
2022-08-05T03:18:49.328Z,7.50
2022-08-05T03:21:16.810Z,8.85
2022-08-05T03:23:45.708Z,9.02
2022-08-05T03:26:31.829Z,9.20
2022-08-05T03:29:00.223Z,8.90
2022-08-05T03:31:56.570Z,8.02
2022-08-05T03:34:17.902Z,7.78
2022-08-05T03:36:45.789Z,7.53
2022-08-05T03:39:20.341Z,8.70
2022-08-05T03:41:56.252Z,8.13
2022-08-05T03:44:23.966Z,9.10
2022-08-05T03:46:52.876Z,8.98
2022-08-05T03:49:20.410Z,7.22
2022-08-05T03:52:36.467Z,6.95
2022-08-05T03:55:34.229Z,6.50
2022-08-05T03:57:42.478Z,7.88
2022-08-05T04:00:16.398Z,7.75
2022-08-05T04:02:57.660Z,7.20
2022-08-05T04:05:27.932Z,7.05
2022-08-05T04:08:01.752Z,6.27
2022-08-05T04:10:37.601Z,8.82
2022-08-05T04:13:06.448Z,6.53
2022-08-05T04:15:36.860Z,7.85
2022-08-05T04:18:09.433Z,7.82
2022-08-05T04:20:37.403Z,5.70
2022-08-05T04:23:05.395Z,7.05
2022-08-05T04:25:56.871Z,5.68
2022-08-05T04:28:20.331Z,6.70
2022-08-05T04:30:58.372Z,9.43
2022-08-05T04:33:54.723Z,7.10
2022-08-05T04:36:45.576Z,5.35
2022-08-05T04:39:05.043Z,8.48
2022-08-05T04:41:37.885Z,7.20
2022-08-05T04:44:09.532Z,7.10
2022-08-05T04:46:37.425Z,6.00
2022-08-05T04:49:12.201Z,6.10
2022-08-05T04:51:42.438Z,6.15
2022-08-05T04:54:11.969Z,7.13
2022-08-05T04:56:40.233Z,7.38
2022-08-05T04:59:21.924Z,5.20
2022-08-05T05:02:07.351Z,6.35
2022-08-05T05:04:47.776Z,7.13
2022-08-05T05:07:17.469Z,6.55
2022-08-05T05:09:45.081Z,5.43
2022-08-05T05:12:12.487Z,7.27
2022-08-05T05:14:49.140Z,6.22
2022-08-05T05:17:23.509Z,5.38
2022-08-05T05:19:56.446Z,6.07
2022-08-05T05:22:26.081Z,6.05
2022-08-05T05:24:58.323Z,5.73
2022-08-05T05:27:41.684Z,5.40
2022-08-05T05:30:15.282Z,5.22
2022-08-05T05:32:43.430Z,5.07
2022-08-05T05:35:19.839Z,6.00
2022-08-05T05:37:59.939Z,6.43
2022-08-05T05:40:29.907Z,4.85
2022-08-05T05:42:57.723Z,3.75
2022-08-05T05:45:25.201Z,5.38
2022-08-05T05:48:06.554Z,5.78
2022-08-05T05:50:41.252Z,4.57
2022-08-05T05:53:22.099Z,6.18
2022-08-05T05:55:51.636Z,6.47
2022-08-05T05:58:31.371Z,6.20
2022-08-05T06:01:12.313Z,3.80
2022-08-05T06:04:00.971Z,4.80
2022-08-05T06:06:33.202Z,4.68
2022-08-05T06:09:03.959Z,5.20
2022-08-05T06:11:31.678Z,4.78
2022-08-05T06:14:00.338Z,4.90
2022-08-05T06:16:32.804Z,5.13
2022-08-05T06:19:05.695Z,5.90
2022-08-05T06:21:38.368Z,5.57
2022-08-05T06:24:12.222Z,5.55
2022-08-05T06:26:51.670Z,4.45
2022-08-05T06:29:25.481Z,3.40
2022-08-05T06:32:25.172Z,5.90
2022-08-05T06:34:56.159Z,4.50
2022-08-05T06:37:55.842Z,4.18
2022-08-05T06:40:18.399Z,6.35
2022-08-05T06:42:48.897Z,4.57
2022-08-05T06:45:20.670Z,4.93
2022-08-05T06:48:44.120Z,4.55
2022-08-05T06:50:36.611Z,5.53
2022-08-05T06:53:11.534Z,3.30
2022-08-05T06:55:50.203Z,3.47
2022-08-05T06:58:29.766Z,3.83
2022-08-05T07:01:02.630Z,2.95
2022-08-05T07:03:32.667Z,3.55
2022-08-05T07:06:01.915Z,2.75
2022-08-05T07:08:35.160Z,4.43
2022-08-05T07:11:04.799Z,2.53
2022-08-05T07:13:58.489Z,3.65
2022-08-05T07:17:58.597Z,4.38
2022-08-05T07:20:16.825Z,3.17
2022-08-05T07:22:22.419Z,5.07
2022-08-05T07:24:58.177Z,3.40
2022-08-05T07:27:27.706Z,2.80
2022-08-05T07:30:24.621Z,3.75
2022-08-05T07:32:55.847Z,3.50
2022-08-05T07:36:02.606Z,2.80
2022-08-05T07:38:32.321Z,3.25
2022-08-05T07:41:16.663Z,4.95
2022-08-05T07:43:48.951Z,4.25
2022-08-05T07:46:24.384Z,2.95
2022-08-05T07:49:02.591Z,2.83
2022-08-05T07:51:36.771Z,3.45
2022-08-05T07:54:05.838Z,5.28
2022-08-05T07:57:02.739Z,4.53
2022-08-05T07:59:38.232Z,3.28
2022-08-05T08:02:16.041Z,3.53
2022-08-05T08:04:45.723Z,3.42
2022-08-05T08:07:13.360Z,2.47
2022-08-05T08:09:40.879Z,3.45
2022-08-05T08:12:27.257Z,3.67
2022-08-05T08:14:57.649Z,3.47
2022-08-05T08:17:30.481Z,4.18
2022-08-05T08:20:21.108Z,3.97
2022-08-05T08:22:51.151Z,6.60
2022-08-05T08:25:26.524Z,3.35
2022-08-05T08:28:04.915Z,2.87
2022-08-05T08:30:40.777Z,2.97
2022-08-05T08:33:15.757Z,4.28
2022-08-05T08:35:52.993Z,3.65
2022-08-05T08:38:35.189Z,3.88
2022-08-05T08:41:05.651Z,5.33
2022-08-05T08:45:19.669Z,3.00
2022-08-05T08:46:24.976Z,3.95
2022-08-05T08:49:08.100Z,3.95
2022-08-05T08:52:06.144Z,2.63
2022-08-05T08:54:31.463Z,3.30
2022-08-05T08:56:59.891Z,3.67
2022-08-05T08:59:33.676Z,4.05
2022-08-05T09:02:01.615Z,2.58
2022-08-05T09:04:30.591Z,2.90
2022-08-05T09:06:58.730Z,4.27
2022-08-05T09:09:32.537Z,3.15
2022-08-05T09:12:14.409Z,2.35
2022-08-05T09:14:58.375Z,3.30
2022-08-05T09:17:42.881Z,2.97
2022-08-05T09:20:20.900Z,4.57
2022-08-05T09:23:19.528Z,2.00
2022-08-05T09:26:02.843Z,4.90
2022-08-05T09:28:33.624Z,3.05
2022-08-05T09:31:22.856Z,3.88
2022-08-05T09:33:53.957Z,2.03
2022-08-05T09:36:21.426Z,4.40
2022-08-05T09:38:59.151Z,1.88
2022-08-05T09:41:26.699Z,3.20
2022-08-05T09:44:00.992Z,4.20
2022-08-05T09:46:30.581Z,4.40
2022-08-05T09:49:08.190Z,2.90
2022-08-05T09:51:49.987Z,2.20
2022-08-05T09:54:29.002Z,2.20
2022-08-05T09:57:01.294Z,2.00
2022-08-05T09:59:29.716Z,3.90
2022-08-05T10:02:04.185Z,3.67
2022-08-05T10:04:36.208Z,3.28
2022-08-05T10:07:20.598Z,2.63
2022-08-05T10:10:14.005Z,2.25
2022-08-05T10:12:49.163Z,3.70
2022-08-05T10:15:20.601Z,3.22
2022-08-05T10:18:03.832Z,3.78
2022-08-05T10:20:31.528Z,3.60
2022-08-05T10:23:00.887Z,4.07
2022-08-05T10:25:28.816Z,4.00
2022-08-05T10:28:12.750Z,4.47
2022-08-05T10:32:48.396Z,2.80
2022-08-05T10:33:36.368Z,3.08
2022-08-05T10:36:12.477Z,5.72
2022-08-05T10:38:44.946Z,2.50
2022-08-05T10:41:23.661Z,2.33
2022-08-05T10:43:52.920Z,4.35
2022-08-05T10:46:23.760Z,3.22
2022-08-05T10:49:01.454Z,3.15
2022-08-05T10:51:53.103Z,1.90
2022-08-05T10:54:56.850Z,3.95
2022-08-05T10:57:30.946Z,2.97
2022-08-05T11:00:17.908Z,4.25
2022-08-05T11:03:24.676Z,3.40
2022-08-05T11:06:15.213Z,2.60
2022-08-05T11:08:59.211Z,3.65
2022-08-05T11:11:44.813Z,3.08
2022-08-05T11:15:19.419Z,3.83
2022-08-05T11:17:59.891Z,3.75
2022-08-05T11:20:37.571Z,2.77
2022-08-05T11:23:25.642Z,2.28
2022-08-05T11:26:08.843Z,2.78
2022-08-05T11:28:54.760Z,3.13
2022-08-05T11:31:57.537Z,4.78
2022-08-05T11:34:14.805Z,2.77
2022-08-05T11:36:52.882Z,2.38
2022-08-05T11:39:39.526Z,3.05
2022-08-05T11:42:18.305Z,2.60
2022-08-05T11:44:53.328Z,2.17
2022-08-05T11:47:49.412Z,2.93
2022-08-05T11:50:10.061Z,2.38
2022-08-05T11:52:44.005Z,1.92
2022-08-05T11:55:13.685Z,4.07
2022-08-05T11:58:09.587Z,3.00
2022-08-05T12:00:38.096Z,3.70
2022-08-05T12:03:31.632Z,5.22
2022-08-05T12:06:00.500Z,3.92
2022-08-05T12:08:28.456Z,2.95
2022-08-05T12:10:59.921Z,1.77
2022-08-05T12:13:49.700Z,7.10
2022-08-05T12:16:19.167Z,2.58
2022-08-05T12:18:52.250Z,3.80
2022-08-05T12:21:22.039Z,1.88
2022-08-05T12:23:55.007Z,2.03
2022-08-05T12:26:23.813Z,1.90
2022-08-05T12:28:52.855Z,2.30
2022-08-05T12:31:23.473Z,4.15
2022-08-05T12:34:01.445Z,2.47
2022-08-05T12:36:31.756Z,4.10
2022-08-05T12:39:00.372Z,5.33
2022-08-05T12:41:34.479Z,3.00
2022-08-05T12:44:05.109Z,4.30
2022-08-05T12:46:39.899Z,3.67
2022-08-05T12:49:14.503Z,3.03
2022-08-05T12:52:13.788Z,2.77
2022-08-05T12:54:34.551Z,3.72
2022-08-05T12:57:02.844Z,3.67
2022-08-05T13:01:58.098Z,4.40
2022-08-05T13:02:30.318Z,2.40
2022-08-05T13:04:58.827Z,5.23
2022-08-05T13:07:57.816Z,3.65
2022-08-05T13:10:20.261Z,2.83
2022-08-05T13:12:50.815Z,2.28
2022-08-05T13:15:41.922Z,5.90
2022-08-05T13:18:19.433Z,5.83
2022-08-05T13:20:49.114Z,5.93
2022-08-05T13:23:22.098Z,5.47
2022-08-05T13:25:51.613Z,4.78
2022-08-05T13:28:26.915Z,5.45
2022-08-05T13:30:55.917Z,3.83
2022-08-05T13:34:24.949Z,8.30
2022-08-05T13:36:14.356Z,5.50
2022-08-05T13:38:43.162Z,4.07
2022-08-05T13:41:11.069Z,3.40
2022-08-05T13:43:45.410Z,3.97
2022-08-05T13:46:50.721Z,4.30
2022-08-05T13:49:12.913Z,4.57
2022-08-05T13:51:46.158Z,4.32
2022-08-05T13:54:15.502Z,3.35
2022-08-05T13:56:45.487Z,4.27
2022-08-05T13:59:20.797Z,4.47
2022-08-05T14:01:59.032Z,2.55
2022-08-05T14:04:50.225Z,3.72
2022-08-05T14:07:25.837Z,4.18
2022-08-05T14:10:08.340Z,5.40
2022-08-05T14:12:36.098Z,5.35
2022-08-05T14:16:03.881Z,3.85
2022-08-05T14:17:57.764Z,3.30
2022-08-05T14:20:27.594Z,2.85
2022-08-05T14:22:55.268Z,2.60
2022-08-05T14:25:28.121Z,3.95
2022-08-05T14:27:56.016Z,4.68
2022-08-05T14:30:26.599Z,4.50
2022-08-05T14:32:57.118Z,3.80
2022-08-05T14:35:37.147Z,4.30
2022-08-05T14:38:31.688Z,3.53
2022-08-05T14:41:01.215Z,2.97
2022-08-05T14:43:59.434Z,3.95
2022-08-05T14:46:16.503Z,3.65
2022-08-05T14:48:45.251Z,3.37
2022-08-05T14:51:17.490Z,3.38
2022-08-05T14:54:28.638Z,3.88
2022-08-05T14:56:35.054Z,3.65
2022-08-05T14:59:07.829Z,4.68
2022-08-05T15:01:48.091Z,4.83
2022-08-05T15:04:20.465Z,3.30
2022-08-05T15:06:50.759Z,5.15
2022-08-05T15:09:51.305Z,4.20
2022-08-05T15:12:06.468Z,3.53
2022-08-05T15:14:48.231Z,3.50
2022-08-05T15:17:46.953Z,5.70
2022-08-05T15:20:07.563Z,4.32
2022-08-05T15:22:37.239Z,5.47
2022-08-05T15:25:11.471Z,4.88
2022-08-05T15:27:42.890Z,5.17
2022-08-05T15:30:14.045Z,5.72
2022-08-05T15:32:42.225Z,6.82
2022-08-05T15:35:12.567Z,6.07
2022-08-05T15:38:33.159Z,4.90
2022-08-05T15:41:00.358Z,6.90
2022-08-05T15:43:20.203Z,8.80
2022-08-05T15:46:00.537Z,7.43
2022-08-05T15:48:29.536Z,3.70
2022-08-05T15:51:01.026Z,4.88
2022-08-05T15:53:38.200Z,5.03
2022-08-05T15:56:17.906Z,4.78
2022-08-05T15:58:48.173Z,3.65
2022-08-05T16:01:17.945Z,5.18
2022-08-05T16:03:50.280Z,5.20
2022-08-05T16:06:22.729Z,3.17
2022-08-05T16:08:53.671Z,5.00
2022-08-05T16:11:42.952Z,3.20
2022-08-05T16:14:10.508Z,4.13
2022-08-05T16:16:44.935Z,2.95
2022-08-05T16:19:25.483Z,5.00
2022-08-05T16:22:03.152Z,4.47
2022-08-05T16:24:39.948Z,6.30
2022-08-05T16:27:09.839Z,7.45
2022-08-05T16:29:47.511Z,5.57
2022-08-05T16:32:23.344Z,3.47
2022-08-05T16:34:56.716Z,5.82
2022-08-05T16:38:03.202Z,3.47
2022-08-05T16:40:26.633Z,4.75
2022-08-05T16:42:56.803Z,5.47
2022-08-05T16:46:04.033Z,4.53
2022-08-05T16:48:11.999Z,5.95
2022-08-05T16:50:53.743Z,4.53
2022-08-05T16:53:32.403Z,5.25
2022-08-05T16:56:10.244Z,4.28
2022-08-05T16:58:40.627Z,3.63
2022-08-05T17:01:10.351Z,5.18
2022-08-05T17:03:38.236Z,6.03
2022-08-05T17:06:06.610Z,4.38
2022-08-05T17:08:52.960Z,4.75
2022-08-05T17:11:23.509Z,4.43
2022-08-05T17:14:05.896Z,4.93
2022-08-05T17:16:36.237Z,6.13
2022-08-05T17:19:07.689Z,4.80
2022-08-05T17:21:37.235Z,4.97
2022-08-05T17:24:14.267Z,6.27
2022-08-05T17:26:56.870Z,4.28
2022-08-05T17:29:33.152Z,6.25
2022-08-05T17:32:08.430Z,5.72
2022-08-05T17:34:39.149Z,4.78
2022-08-05T17:37:29.467Z,4.90
2022-08-05T17:39:55.939Z,4.55
2022-08-05T17:42:31.888Z,5.35
2022-08-05T17:45:18.083Z,3.88
2022-08-05T17:47:53.404Z,5.40
2022-08-05T17:50:27.639Z,3.80
2022-08-05T17:52:56.556Z,4.22
2022-08-05T17:55:34.440Z,4.45
2022-08-05T17:58:06.941Z,5.45
2022-08-05T18:00:36.825Z,4.78
2022-08-05T18:03:12.254Z,5.87
2022-08-05T18:05:56.006Z,5.78
2022-08-05T18:08:29.735Z,4.18
2022-08-05T18:10:59.140Z,5.72
2022-08-05T18:13:26.620Z,3.67
2022-08-05T18:16:04.562Z,4.77
2022-08-05T18:18:39.570Z,5.95
2022-08-05T18:21:13.398Z,4.40
2022-08-05T18:23:48.687Z,5.13
2022-08-05T18:26:22.409Z,5.75
2022-08-05T18:28:57.382Z,3.07
2022-08-05T18:31:25.078Z,3.55
2022-08-05T18:33:53.761Z,4.82
2022-08-05T18:36:28.011Z,4.63
2022-08-05T18:38:55.844Z,4.43
2022-08-05T18:41:55.809Z,4.00
2022-08-05T18:44:12.753Z,5.10
2022-08-05T18:46:41.328Z,5.10
2022-08-05T18:49:57.088Z,5.28
2022-08-05T18:52:41.609Z,5.15
2022-08-05T18:55:22.401Z,4.63
2022-08-05T18:57:53.285Z,4.35
2022-08-05T19:00:28.807Z,5.22
2022-08-05T19:02:57.593Z,4.22
2022-08-05T19:06:11.758Z,5.90
2022-08-05T19:08:19.179Z,4.30
2022-08-05T19:10:49.604Z,4.18
2022-08-05T19:13:19.733Z,5.40
2022-08-05T19:15:58.997Z,4.43
2022-08-05T19:18:31.062Z,3.33
2022-08-05T19:20:59.510Z,3.93
2022-08-05T19:24:05.608Z,3.38
2022-08-05T19:26:16.467Z,5.43
2022-08-05T19:28:45.343Z,4.90
2022-08-05T19:31:18.013Z,4.65
2022-08-05T19:33:48.599Z,3.90
2022-08-05T19:36:23.689Z,3.83
2022-08-05T19:38:51.159Z,6.22
2022-08-05T19:41:34.581Z,6.28
2022-08-05T19:44:13.059Z,3.70
2022-08-05T19:46:41.547Z,5.78
2022-08-05T19:49:16.406Z,4.03
2022-08-05T19:52:08.606Z,5.38
2022-08-05T19:54:32.707Z,4.03
2022-08-05T19:57:02.420Z,5.10
2022-08-05T19:59:56.536Z,5.95
2022-08-05T20:02:22.866Z,5.53
2022-08-05T20:04:50.731Z,4.85
2022-08-05T20:07:45.941Z,4.20
2022-08-05T20:10:14.042Z,5.80
2022-08-05T20:12:47.866Z,5.68
2022-08-05T20:15:48.193Z,4.07
2022-08-05T20:18:10.441Z,4.55
2022-08-05T20:20:55.360Z,4.07
2022-08-05T20:23:23.885Z,3.88
2022-08-05T20:26:08.712Z,4.28
2022-08-05T20:28:45.008Z,5.00
2022-08-05T20:31:13.853Z,5.40
2022-08-05T20:33:44.555Z,6.00
2022-08-05T20:36:14.326Z,6.65
2022-08-05T20:38:53.598Z,3.50
2022-08-05T20:41:43.138Z,3.77
2022-08-05T20:44:18.707Z,5.63
2022-08-05T20:46:58.851Z,5.30
2022-08-05T20:49:26.509Z,3.75
2022-08-05T20:51:54.291Z,4.63
2022-08-05T20:54:21.908Z,5.47
2022-08-05T20:56:49.338Z,5.28
2022-08-05T20:59:26.624Z,4.88
2022-08-05T21:02:06.422Z,5.68
2022-08-05T21:04:34.399Z,4.82
2022-08-05T21:07:01.864Z,4.77
2022-08-05T21:09:29.680Z,4.47
2022-08-05T21:12:09.558Z,8.85
2022-08-05T21:14:38.886Z,4.32
2022-08-05T21:17:07.799Z,4.43
2022-08-05T21:19:46.598Z,3.87
2022-08-05T21:22:21.646Z,4.43
2022-08-05T21:24:51.860Z,8.18
2022-08-05T21:27:20.385Z,3.72
2022-08-05T21:29:51.986Z,4.57
2022-08-05T21:32:23.179Z,5.20
2022-08-05T21:35:08.974Z,6.40
2022-08-05T21:37:41.224Z,5.97
2022-08-05T21:40:13.034Z,4.20
2022-08-05T21:42:44.953Z,4.43
2022-08-05T21:45:24.185Z,5.43
2022-08-05T21:47:57.185Z,5.80
2022-08-05T21:50:25.431Z,3.65
2022-08-05T21:52:53.201Z,3.88
2022-08-05T21:56:01.397Z,4.88
2022-08-05T21:58:10.475Z,3.33
2022-08-05T22:00:40.119Z,4.93
2022-08-05T22:03:14.402Z,6.70
2022-08-05T22:05:48.269Z,6.20
2022-08-05T22:08:22.578Z,6.00
2022-08-05T22:10:53.252Z,5.90
2022-08-05T22:14:05.804Z,6.97
2022-08-05T22:16:32.177Z,8.25
2022-08-05T22:18:58.667Z,5.97
2022-08-05T22:21:26.447Z,4.32
2022-08-05T22:24:13.338Z,6.57
2022-08-05T22:27:17.254Z,7.68
2022-08-05T22:29:47.999Z,4.78
2022-08-05T22:32:17.316Z,4.88
2022-08-05T22:34:51.983Z,4.38
2022-08-05T22:37:20.203Z,3.90
2022-08-05T22:39:50.535Z,6.57
2022-08-05T22:42:25.499Z,6.70
2022-08-05T22:44:56.939Z,6.40
2022-08-05T22:47:29.327Z,6.13
2022-08-05T22:50:19.282Z,5.73
2022-08-05T22:52:47.171Z,5.72
2022-08-05T22:55:19.092Z,8.82
2022-08-05T22:57:49.098Z,5.15
2022-08-05T23:00:18.305Z,6.50
2022-08-05T23:02:48.764Z,5.53
2022-08-05T23:05:18.287Z,5.57
2022-08-05T23:07:50.254Z,5.57
2022-08-05T23:10:20.051Z,5.32
2022-08-05T23:12:51.353Z,5.97
2022-08-05T23:15:21.916Z,5.87
2022-08-05T23:18:01.601Z,3.80
2022-08-05T23:20:32.324Z,7.18
2022-08-05T23:22:59.830Z,5.18
2022-08-05T23:25:51.258Z,5.80
2022-08-05T23:28:15.916Z,4.93
2022-08-05T23:30:53.163Z,6.32
2022-08-05T23:33:25.682Z,5.72
2022-08-05T23:36:10.766Z,5.95
2022-08-05T23:38:41.331Z,6.32
2022-08-05T23:41:10.247Z,5.10
2022-08-05T23:44:05.297Z,5.97
2022-08-05T23:46:25.076Z,5.75
2022-08-05T23:49:01.076Z,5.75
2022-08-05T23:51:53.363Z,5.65
2022-08-05T23:54:25.337Z,4.27
2022-08-05T23:56:54.053Z,4.95
2022-08-05T23:59:21.531Z,5.93
